Narberth, United Kingdom
Current Conditions -  °F | °C
As of 1:50 AM on Sunday 23 Nov 2014 (Local Time) from EGOP Reporting Station
Overcast Overcast  
Wind Chill: 44°   Ceiling: 5000
Heat Index: 46°   Visibility: 6mi
Dew Point: 45°   Wind: 5mph
Humidity: 93%   Direction: 40°NE
Pressure: 30.03"   Gusts: NA
Location:  51.8°N, 4.74°W
Report Text: EGOP 230150Z AUTO 04004KT 9999 // OVC050/// 08/07 Q1017
Loading
Personal Weather Stations






























Interactive Weather Map New forecast layout! Learn more

10-Day Weather Forecast

Advertisements
Track Severe Weather on mobile